Аэропорт: Кызылорда. Кызылорда

ICAO: UAOO

METAR:
2022-06-26 10:00:00
UAOO 261000Z 32007MPS CAVOK 38/05 Q1003 NOSIG RMK QFE741/0988
METAR:
2022-06-26 08:00:00
TAF UAOO 260800Z 2609/2618 32007MPS 9999 SCT040CB BKN100